Westby, Wisconsin
Current Conditions -  °F | °C
As of 6:35 PM on Saturday 25 Oct 2014 (Local Time) from KY51 Reporting Station
Clear Clear  
Wind Chill: 53°   Ceiling: Unl
Heat Index: 53°   Visibility: 10mi
Dew Point: 27°   Wind: 7mph
Humidity: 36%   Direction: 290°WNW
Pressure: 30"   Gusts: NA
Location:  43.66°N, 90.85°W
Report Text: KY51 252335Z AUTO 29006KT 10SM CLR 12/M03 A3000 RMK AO1 T01181030
Loading
Personal Weather Stations






























Interactive Weather Map
Tropical Storm Tracking
New forecast layout! Learn more

10-Day Weather Forecast

Advertisements
Track Severe Weather on mobile